sensor_id;sensor_type;location;lat;lon;timestamp;P1;durP1;ratioP1;P2;durP2;ratioP2
68250;SDS011;55066;51.560;4.642;2023-08-20T00:00:13;8.80;;;2.33;;
68250;SDS011;55066;51.560;4.642;2023-08-20T00:02:41;8.30;;;2.20;;
68250;SDS011;55066;51.560;4.642;2023-08-20T00:05:07;9.02;;;2.10;;
68250;SDS011;55066;51.560;4.642;2023-08-20T00:07:34;8.27;;;2.10;;
68250;SDS011;55066;51.560;4.642;2023-08-20T00:10:00;9.50;;;1.88;;
68250;SDS011;55066;51.560;4.642;2023-08-20T00:12:25;11.63;;;2.07;;
68250;SDS011;55066;51.560;4.642;2023-08-20T00:14:52;7.65;;;2.10;;
68250;SDS011;55066;51.560;4.642;2023-08-20T00:17:18;10.82;;;2.10;;
68250;SDS011;55066;51.560;4.642;2023-08-20T00:19:44;10.63;;;2.40;;
68250;SDS011;55066;51.560;4.642;2023-08-20T00:22:10;8.13;;;2.17;;
68250;SDS011;55066;51.560;4.642;2023-08-20T00:24:36;11.17;;;2.67;;
68250;SDS011;55066;51.560;4.642;2023-08-20T00:27:01;6.30;;;2.30;;
68250;SDS011;55066;51.560;4.642;2023-08-20T00:29:27;10.70;;;2.83;;
68250;SDS011;55066;51.560;4.642;2023-08-20T00:31:52;9.87;;;2.70;;
68250;SDS011;55066;51.560;4.642;2023-08-20T00:34:18;8.07;;;2.40;;
68250;SDS011;55066;51.560;4.642;2023-08-20T00:36:43;11.03;;;2.33;;
68250;SDS011;55066;51.560;4.642;2023-08-20T00:39:09;11.93;;;3.07;;
68250;SDS011;55066;51.560;4.642;2023-08-20T00:41:34;10.23;;;2.92;;
68250;SDS011;55066;51.560;4.642;2023-08-20T00:43:59;9.40;;;3.33;;
68250;SDS011;55066;51.560;4.642;2023-08-20T00:46:26;10.00;;;2.78;;
68250;SDS011;55066;51.560;4.642;2023-08-20T00:48:51;11.07;;;2.97;;
68250;SDS011;55066;51.560;4.642;2023-08-20T00:51:17;8.03;;;2.57;;
68250;SDS011;55066;51.560;4.642;2023-08-20T00:53:44;7.72;;;2.38;;
68250;SDS011;55066;51.560;4.642;2023-08-20T00:56:10;9.57;;;2.57;;
68250;SDS011;55066;51.560;4.642;2023-08-20T00:58:37;13.00;;;2.70;;
68250;SDS011;55066;51.560;4.642;2023-08-20T01:01:02;9.43;;;2.77;;
68250;SDS011;55066;51.560;4.642;2023-08-20T01:03:28;8.93;;;2.97;;
68250;SDS011;55066;51.560;4.642;2023-08-20T01:05:56;7.93;;;2.63;;
68250;SDS011;55066;51.560;4.642;2023-08-20T01:08:51;9.70;;;3.03;;
68250;SDS011;55066;51.560;4.642;2023-08-20T01:11:26;11.07;;;3.00;;
68250;SDS011;55066;51.560;4.642;2023-08-20T01:13:58;11.02;;;2.80;;
68250;SDS011;55066;51.560;4.642;2023-08-20T01:16:24;10.30;;;2.90;;
68250;SDS011;55066;51.560;4.642;2023-08-20T01:18:49;9.23;;;2.50;;
68250;SDS011;55066;51.560;4.642;2023-08-20T01:21:29;10.52;;;2.50;;
68250;SDS011;55066;51.560;4.642;2023-08-20T01:26:53;10.32;;;2.83;;
68250;SDS011;55066;51.560;4.642;2023-08-20T01:29:25;8.03;;;2.40;;
68250;SDS011;55066;51.560;4.642;2023-08-20T01:31:52;9.05;;;2.50;;
68250;SDS011;55066;51.560;4.642;2023-08-20T01:34:20;8.60;;;3.03;;
68250;SDS011;55066;51.560;4.642;2023-08-20T01:36:46;11.57;;;2.85;;
68250;SDS011;55066;51.560;4.642;2023-08-20T01:39:12;8.73;;;2.50;;
68250;SDS011;55066;51.560;4.642;2023-08-20T01:41:38;11.88;;;2.75;;
68250;SDS011;55066;51.560;4.642;2023-08-20T01:44:04;8.30;;;2.90;;
68250;SDS011;55066;51.560;4.642;2023-08-20T01:46:31;8.85;;;2.60;;
68250;SDS011;55066;51.560;4.642;2023-08-20T01:48:57;13.77;;;2.97;;
68250;SDS011;55066;51.560;4.642;2023-08-20T01:51:22;9.07;;;2.90;;
68250;SDS011;55066;51.560;4.642;2023-08-20T01:53:48;9.63;;;2.72;;
68250;SDS011;55066;51.560;4.642;2023-08-20T01:56:13;13.27;;;3.40;;
68250;SDS011;55066;51.560;4.642;2023-08-20T01:58:39;10.35;;;3.20;;
68250;SDS011;55066;51.560;4.642;2023-08-20T02:01:05;11.93;;;3.13;;
68250;SDS011;55066;51.560;4.642;2023-08-20T02:03:31;8.07;;;2.47;;
68250;SDS011;55066;51.560;4.642;2023-08-20T02:05:56;10.57;;;2.97;;
68250;SDS011;55066;51.560;4.642;2023-08-20T02:08:22;22.47;;;3.37;;
68250;SDS011;55066;51.560;4.642;2023-08-20T02:10:48;13.68;;;3.40;;
68250;SDS011;55066;51.560;4.642;2023-08-20T02:13:14;9.63;;;2.90;;
68250;SDS011;55066;51.560;4.642;2023-08-20T02:15:39;12.43;;;2.83;;
68250;SDS011;55066;51.560;4.642;2023-08-20T02:18:05;10.33;;;2.97;;
68250;SDS011;55066;51.560;4.642;2023-08-20T02:20:30;8.67;;;2.87;;
68250;SDS011;55066;51.560;4.642;2023-08-20T02:22:56;10.57;;;3.10;;
68250;SDS011;55066;51.560;4.642;2023-08-20T02:25:22;8.43;;;2.90;;
68250;SDS011;55066;51.560;4.642;2023-08-20T02:27:48;10.57;;;3.00;;
68250;SDS011;55066;51.560;4.642;2023-08-20T02:30:14;7.87;;;2.80;;
68250;SDS011;55066;51.560;4.642;2023-08-20T02:32:39;12.33;;;2.83;;
68250;SDS011;55066;51.560;4.642;2023-08-20T02:35:05;8.68;;;2.97;;
68250;SDS011;55066;51.560;4.642;2023-08-20T02:37:31;9.93;;;3.03;;
68250;SDS011;55066;51.560;4.642;2023-08-20T02:39:57;9.43;;;3.33;;
68250;SDS011;55066;51.560;4.642;2023-08-20T02:42:23;8.30;;;2.63;;
68250;SDS011;55066;51.560;4.642;2023-08-20T02:44:48;9.73;;;2.93;;
68250;SDS011;55066;51.560;4.642;2023-08-20T02:47:14;8.93;;;2.67;;
68250;SDS011;55066;51.560;4.642;2023-08-20T02:49:39;10.70;;;2.73;;
68250;SDS011;55066;51.560;4.642;2023-08-20T02:52:05;8.18;;;2.88;;
68250;SDS011;55066;51.560;4.642;2023-08-20T02:54:30;7.10;;;2.50;;
68250;SDS011;55066;51.560;4.642;2023-08-20T02:56:58;9.10;;;2.78;;
68250;SDS011;55066;51.560;4.642;2023-08-20T02:59:24;9.68;;;3.30;;
68250;SDS011;55066;51.560;4.642;2023-08-20T03:01:49;9.57;;;2.50;;
68250;SDS011;55066;51.560;4.642;2023-08-20T03:04:15;10.03;;;2.83;;
68250;SDS011;55066;51.560;4.642;2023-08-20T03:06:40;10.38;;;2.53;;
68250;SDS011;55066;51.560;4.642;2023-08-20T03:09:06;9.23;;;2.43;;
68250;SDS011;55066;51.560;4.642;2023-08-20T03:11:31;5.63;;;2.57;;
68250;SDS011;55066;51.560;4.642;2023-08-20T03:13:57;9.73;;;2.40;;
68250;SDS011;55066;51.560;4.642;2023-08-20T03:16:22;12.32;;;3.00;;
68250;SDS011;55066;51.560;4.642;2023-08-20T03:18:48;10.50;;;2.60;;
68250;SDS011;55066;51.560;4.642;2023-08-20T03:21:13;12.60;;;2.83;;
68250;SDS011;55066;51.560;4.642;2023-08-20T03:23:39;14.27;;;2.90;;
68250;SDS011;55066;51.560;4.642;2023-08-20T03:26:04;7.67;;;2.60;;
68250;SDS011;55066;51.560;4.642;2023-08-20T03:28:30;8.90;;;2.90;;
68250;SDS011;55066;51.560;4.642;2023-08-20T03:30:59;6.72;;;2.67;;
68250;SDS011;55066;51.560;4.642;2023-08-20T03:33:27;7.68;;;2.65;;
68250;SDS011;55066;51.560;4.642;2023-08-20T03:35:53;10.77;;;2.53;;
68250;SDS011;55066;51.560;4.642;2023-08-20T03:38:18;8.57;;;2.97;;
68250;SDS011;55066;51.560;4.642;2023-08-20T03:40:44;10.07;;;2.73;;
68250;SDS011;55066;51.560;4.642;2023-08-20T03:43:10;9.50;;;2.80;;
68250;SDS011;55066;51.560;4.642;2023-08-20T03:45:36;10.52;;;2.90;;
68250;SDS011;55066;51.560;4.642;2023-08-20T03:48:01;9.67;;;2.97;;
68250;SDS011;55066;51.560;4.642;2023-08-20T03:50:27;10.10;;;3.20;;
68250;SDS011;55066;51.560;4.642;2023-08-20T03:52:53;7.13;;;2.70;;
68250;SDS011;55066;51.560;4.642;2023-08-20T03:55:18;8.03;;;2.70;;
68250;SDS011;55066;51.560;4.642;2023-08-20T03:57:43;9.85;;;2.70;;
68250;SDS011;55066;51.560;4.642;2023-08-20T04:00:09;6.87;;;2.27;;
68250;SDS011;55066;51.560;4.642;2023-08-20T04:02:43;9.10;;;2.70;;
68250;SDS011;55066;51.560;4.642;2023-08-20T04:05:08;8.77;;;3.03;;
68250;SDS011;55066;51.560;4.642;2023-08-20T04:07:34;9.70;;;2.70;;
68250;SDS011;55066;51.560;4.642;2023-08-20T04:10:00;8.45;;;3.10;;
68250;SDS011;55066;51.560;4.642;2023-08-20T04:12:25;11.20;;;3.20;;
68250;SDS011;55066;51.560;4.642;2023-08-20T04:14:51;9.07;;;3.30;;
68250;SDS011;55066;51.560;4.642;2023-08-20T04:17:16;7.45;;;2.50;;
68250;SDS011;55066;51.560;4.642;2023-08-20T04:19:42;11.70;;;3.23;;
68250;SDS011;55066;51.560;4.642;2023-08-20T04:22:07;9.63;;;2.70;;
68250;SDS011;55066;51.560;4.642;2023-08-20T04:24:33;11.50;;;3.13;;
68250;SDS011;55066;51.560;4.642;2023-08-20T04:26:58;8.23;;;3.03;;
68250;SDS011;55066;51.560;4.642;2023-08-20T04:29:26;9.45;;;3.13;;
68250;SDS011;55066;51.560;4.642;2023-08-20T04:31:52;9.27;;;3.05;;
68250;SDS011;55066;51.560;4.642;2023-08-20T04:34:18;10.27;;;3.30;;
68250;SDS011;55066;51.560;4.642;2023-08-20T04:36:47;7.93;;;2.85;;
68250;SDS011;55066;51.560;4.642;2023-08-20T04:39:13;7.10;;;2.50;;
68250;SDS011;55066;51.560;4.642;2023-08-20T04:41:43;8.48;;;2.72;;
68250;SDS011;55066;51.560;4.642;2023-08-20T04:44:13;10.60;;;3.47;;
68250;SDS011;55066;51.560;4.642;2023-08-20T04:46:38;9.37;;;3.00;;
68250;SDS011;55066;51.560;4.642;2023-08-20T04:49:04;8.55;;;3.25;;
68250;SDS011;55066;51.560;4.642;2023-08-20T04:51:29;9.17;;;2.90;;
68250;SDS011;55066;51.560;4.642;2023-08-20T04:53:55;9.37;;;3.10;;
68250;SDS011;55066;51.560;4.642;2023-08-20T04:56:20;8.82;;;3.00;;
68250;SDS011;55066;51.560;4.642;2023-08-20T04:58:46;11.10;;;3.17;;
68250;SDS011;55066;51.560;4.642;2023-08-20T05:01:17;10.10;;;3.25;;
68250;SDS011;55066;51.560;4.642;2023-08-20T05:03:43;8.63;;;2.87;;
68250;SDS011;55066;51.560;4.642;2023-08-20T05:06:08;9.90;;;3.07;;
68250;SDS011;55066;51.560;4.642;2023-08-20T05:08:34;9.02;;;3.05;;
68250;SDS011;55066;51.560;4.642;2023-08-20T05:11:00;9.10;;;3.83;;
68250;SDS011;55066;51.560;4.642;2023-08-20T05:13:26;12.18;;;3.15;;
68250;SDS011;55066;51.560;4.642;2023-08-20T05:15:52;12.18;;;3.42;;
68250;SDS011;55066;51.560;4.642;2023-08-20T05:18:17;8.73;;;3.50;;
68250;SDS011;55066;51.560;4.642;2023-08-20T05:20:42;8.83;;;3.27;;
68250;SDS011;55066;51.560;4.642;2023-08-20T05:23:09;9.95;;;3.05;;
68250;SDS011;55066;51.560;4.642;2023-08-20T05:25:34;8.40;;;3.00;;
68250;SDS011;55066;51.560;4.642;2023-08-20T05:28:00;7.17;;;2.70;;
68250;SDS011;55066;51.560;4.642;2023-08-20T05:30:26;8.98;;;3.22;;
68250;SDS011;55066;51.560;4.642;2023-08-20T05:32:53;6.93;;;2.97;;
68250;SDS011;55066;51.560;4.642;2023-08-20T05:35:20;9.85;;;3.22;;
68250;SDS011;55066;51.560;4.642;2023-08-20T05:37:49;12.00;;;3.30;;
68250;SDS011;55066;51.560;4.642;2023-08-20T05:40:14;9.20;;;3.37;;
68250;SDS011;55066;51.560;4.642;2023-08-20T05:42:40;10.90;;;2.90;;
68250;SDS011;55066;51.560;4.642;2023-08-20T05:45:06;9.68;;;3.00;;
68250;SDS011;55066;51.560;4.642;2023-08-20T05:47:33;10.63;;;3.30;;
68250;SDS011;55066;51.560;4.642;2023-08-20T05:49:59;8.77;;;3.50;;
68250;SDS011;55066;51.560;4.642;2023-08-20T05:52:24;11.82;;;3.45;;
68250;SDS011;55066;51.560;4.642;2023-08-20T05:54:51;7.37;;;3.27;;
68250;SDS011;55066;51.560;4.642;2023-08-20T05:57:16;9.27;;;3.20;;
68250;SDS011;55066;51.560;4.642;2023-08-20T05:59:43;10.27;;;3.45;;
68250;SDS011;55066;51.560;4.642;2023-08-20T06:02:08;10.47;;;3.40;;
68250;SDS011;55066;51.560;4.642;2023-08-20T06:04:34;11.43;;;3.70;;
68250;SDS011;55066;51.560;4.642;2023-08-20T06:06:59;11.18;;;3.40;;
68250;SDS011;55066;51.560;4.642;2023-08-20T06:09:25;9.67;;;3.40;;
68250;SDS011;55066;51.560;4.642;2023-08-20T06:11:50;9.70;;;3.43;;
68250;SDS011;55066;51.560;4.642;2023-08-20T06:14:16;10.60;;;3.50;;
68250;SDS011;55066;51.560;4.642;2023-08-20T06:16:42;9.97;;;3.80;;
68250;SDS011;55066;51.560;4.642;2023-08-20T06:19:07;9.30;;;2.90;;
68250;SDS011;55066;51.560;4.642;2023-08-20T06:21:33;7.93;;;3.10;;
68250;SDS011;55066;51.560;4.642;2023-08-20T06:23:59;9.40;;;3.72;;
68250;SDS011;55066;51.560;4.642;2023-08-20T06:26:25;10.97;;;3.37;;
68250;SDS011;55066;51.560;4.642;2023-08-20T06:28:51;10.27;;;3.00;;
68250;SDS011;55066;51.560;4.642;2023-08-20T06:31:17;7.53;;;2.80;;
68250;SDS011;55066;51.560;4.642;2023-08-20T06:33:43;10.33;;;3.17;;
68250;SDS011;55066;51.560;4.642;2023-08-20T06:36:08;7.30;;;2.77;;
68250;SDS011;55066;51.560;4.642;2023-08-20T06:38:33;12.47;;;3.03;;
68250;SDS011;55066;51.560;4.642;2023-08-20T06:40:59;10.00;;;2.97;;
68250;SDS011;55066;51.560;4.642;2023-08-20T06:43:24;10.20;;;2.50;;
68250;SDS011;55066;51.560;4.642;2023-08-20T06:45:50;7.60;;;2.30;;
68250;SDS011;55066;51.560;4.642;2023-08-20T06:48:15;8.30;;;2.60;;
68250;SDS011;55066;51.560;4.642;2023-08-20T06:50:41;9.63;;;2.63;;
68250;SDS011;55066;51.560;4.642;2023-08-20T06:53:07;8.40;;;2.03;;
68250;SDS011;55066;51.560;4.642;2023-08-20T06:55:32;9.52;;;2.20;;
68250;SDS011;55066;51.560;4.642;2023-08-20T06:57:58;9.03;;;1.90;;
68250;SDS011;55066;51.560;4.642;2023-08-20T07:00:23;9.87;;;2.03;;
68250;SDS011;55066;51.560;4.642;2023-08-20T07:02:49;7.67;;;1.93;;
68250;SDS011;55066;51.560;4.642;2023-08-20T07:05:14;11.00;;;2.67;;
68250;SDS011;55066;51.560;4.642;2023-08-20T07:07:40;6.97;;;1.60;;
68250;SDS011;55066;51.560;4.642;2023-08-20T07:10:05;9.90;;;1.63;;
68250;SDS011;55066;51.560;4.642;2023-08-20T07:12:31;8.23;;;1.77;;
68250;SDS011;55066;51.560;4.642;2023-08-20T07:14:57;7.20;;;1.47;;
68250;SDS011;55066;51.560;4.642;2023-08-20T07:17:22;7.37;;;1.60;;
68250;SDS011;55066;51.560;4.642;2023-08-20T07:19:47;6.35;;;1.40;;
68250;SDS011;55066;51.560;4.642;2023-08-20T07:22:13;10.10;;;1.83;;
68250;SDS011;55066;51.560;4.642;2023-08-20T07:24:38;5.97;;;1.50;;
68250;SDS011;55066;51.560;4.642;2023-08-20T07:27:04;9.57;;;1.63;;
68250;SDS011;55066;51.560;4.642;2023-08-20T07:29:36;5.45;;;2.10;;
68250;SDS011;55066;51.560;4.642;2023-08-20T07:32:01;5.28;;;1.60;;
68250;SDS011;55066;51.560;4.642;2023-08-20T07:34:28;6.80;;;1.87;;
68250;SDS011;55066;51.560;4.642;2023-08-20T07:36:54;8.45;;;1.80;;
68250;SDS011;55066;51.560;4.642;2023-08-20T07:39:19;7.17;;;1.50;;
68250;SDS011;55066;51.560;4.642;2023-08-20T07:41:45;8.15;;;1.65;;
68250;SDS011;55066;51.560;4.642;2023-08-20T07:44:10;8.83;;;1.60;;
68250;SDS011;55066;51.560;4.642;2023-08-20T07:46:36;9.20;;;1.73;;
68250;SDS011;55066;51.560;4.642;2023-08-20T07:49:01;6.85;;;2.13;;
68250;SDS011;55066;51.560;4.642;2023-08-20T07:51:27;10.83;;;1.70;;
68250;SDS011;55066;51.560;4.642;2023-08-20T07:53:54;7.85;;;1.88;;
68250;SDS011;55066;51.560;4.642;2023-08-20T07:56:23;6.75;;;1.60;;
68250;SDS011;55066;51.560;4.642;2023-08-20T07:58:48;9.37;;;3.70;;
68250;SDS011;55066;51.560;4.642;2023-08-20T08:01:14;10.37;;;3.60;;
68250;SDS011;55066;51.560;4.642;2023-08-20T08:03:40;6.20;;;2.58;;
68250;SDS011;55066;51.560;4.642;2023-08-20T08:06:05;6.37;;;1.87;;
68250;SDS011;55066;51.560;4.642;2023-08-20T08:08:31;8.50;;;1.83;;
68250;SDS011;55066;51.560;4.642;2023-08-20T08:10:57;6.43;;;2.00;;
68250;SDS011;55066;51.560;4.642;2023-08-20T08:13:23;5.23;;;1.63;;
68250;SDS011;55066;51.560;4.642;2023-08-20T08:15:49;5.75;;;1.45;;
68250;SDS011;55066;51.560;4.642;2023-08-20T08:18:15;4.28;;;1.30;;
68250;SDS011;55066;51.560;4.642;2023-08-20T08:20:40;3.97;;;1.17;;
68250;SDS011;55066;51.560;4.642;2023-08-20T08:23:06;4.83;;;1.10;;
68250;SDS011;55066;51.560;4.642;2023-08-20T08:25:32;5.78;;;1.30;;
68250;SDS011;55066;51.560;4.642;2023-08-20T08:27:57;4.40;;;1.30;;
68250;SDS011;55066;51.560;4.642;2023-08-20T08:30:22;7.50;;;1.40;;
68250;SDS011;55066;51.560;4.642;2023-08-20T08:32:48;5.53;;;1.67;;
68250;SDS011;55066;51.560;4.642;2023-08-20T08:35:14;6.13;;;1.40;;
68250;SDS011;55066;51.560;4.642;2023-08-20T08:37:39;7.30;;;1.20;;
68250;SDS011;55066;51.560;4.642;2023-08-20T08:40:05;3.50;;;1.30;;
68250;SDS011;55066;51.560;4.642;2023-08-20T08:42:32;4.60;;;1.10;;
68250;SDS011;55066;51.560;4.642;2023-08-20T08:45:02;4.93;;;1.10;;
68250;SDS011;55066;51.560;4.642;2023-08-20T08:47:29;2.75;;;1.10;;
68250;SDS011;55066;51.560;4.642;2023-08-20T08:49:55;5.40;;;1.10;;
68250;SDS011;55066;51.560;4.642;2023-08-20T08:52:22;4.07;;;1.10;;
68250;SDS011;55066;51.560;4.642;2023-08-20T08:54:48;4.77;;;1.30;;
68250;SDS011;55066;51.560;4.642;2023-08-20T08:57:14;5.40;;;1.10;;
68250;SDS011;55066;51.560;4.642;2023-08-20T08:59:41;7.00;;;1.38;;
68250;SDS011;55066;51.560;4.642;2023-08-20T09:02:10;9.70;;;3.60;;
68250;SDS011;55066;51.560;4.642;2023-08-20T09:04:40;4.35;;;1.60;;
68250;SDS011;55066;51.560;4.642;2023-08-20T09:07:11;6.78;;;2.13;;
68250;SDS011;55066;51.560;4.642;2023-08-20T09:09:38;8.95;;;3.67;;
68250;SDS011;55066;51.560;4.642;2023-08-20T09:12:16;2.72;;;0.98;;
68250;SDS011;55066;51.560;4.642;2023-08-20T09:14:47;3.73;;;0.90;;
68250;SDS011;55066;51.560;4.642;2023-08-20T09:17:14;5.30;;;0.95;;
68250;SDS011;55066;51.560;4.642;2023-08-20T09:19:40;4.45;;;0.80;;
68250;SDS011;55066;51.560;4.642;2023-08-20T09:22:08;4.82;;;1.00;;
68250;SDS011;55066;51.560;4.642;2023-08-20T09:24:38;3.50;;;1.30;;
68250;SDS011;55066;51.560;4.642;2023-08-20T09:27:04;5.07;;;1.60;;
68250;SDS011;55066;51.560;4.642;2023-08-20T09:29:43;4.30;;;1.30;;
68250;SDS011;55066;51.560;4.642;2023-08-20T09:32:13;4.57;;;1.83;;
68250;SDS011;55066;51.560;4.642;2023-08-20T09:34:47;3.72;;;1.45;;
68250;SDS011;55066;51.560;4.642;2023-08-20T09:37:14;4.30;;;1.60;;
68250;SDS011;55066;51.560;4.642;2023-08-20T09:39:41;4.32;;;1.38;;
68250;SDS011;55066;51.560;4.642;2023-08-20T09:42:07;4.63;;;1.73;;
68250;SDS011;55066;51.560;4.642;2023-08-20T09:44:40;3.80;;;1.27;;
68250;SDS011;55066;51.560;4.642;2023-08-20T09:47:09;4.13;;;1.30;;
68250;SDS011;55066;51.560;4.642;2023-08-20T09:49:36;4.60;;;1.20;;
68250;SDS011;55066;51.560;4.642;2023-08-20T09:52:14;3.13;;;0.95;;
68250;SDS011;55066;51.560;4.642;2023-08-20T09:57:36;5.80;;;1.60;;
68250;SDS011;55066;51.560;4.642;2023-08-20T10:00:03;7.97;;;2.10;;
68250;SDS011;55066;51.560;4.642;2023-08-20T10:02:39;6.70;;;1.40;;
68250;SDS011;55066;51.560;4.642;2023-08-20T10:05:11;5.22;;;1.27;;
68250;SDS011;55066;51.560;4.642;2023-08-20T10:07:38;5.63;;;1.40;;
68250;SDS011;55066;51.560;4.642;2023-08-20T10:10:04;6.73;;;2.07;;
68250;SDS011;55066;51.560;4.642;2023-08-20T10:12:32;5.30;;;1.30;;
68250;SDS011;55066;51.560;4.642;2023-08-20T10:14:59;5.18;;;1.85;;
68250;SDS011;55066;51.560;4.642;2023-08-20T10:17:25;5.53;;;1.48;;
68250;SDS011;55066;51.560;4.642;2023-08-20T10:19:54;4.68;;;1.30;;
68250;SDS011;55066;51.560;4.642;2023-08-20T10:22:24;4.57;;;1.60;;
68250;SDS011;55066;51.560;4.642;2023-08-20T10:24:57;6.30;;;1.77;;
68250;SDS011;55066;51.560;4.642;2023-08-20T10:27:26;5.68;;;1.17;;
68250;SDS011;55066;51.560;4.642;2023-08-20T10:29:53;6.78;;;1.30;;
68250;SDS011;55066;51.560;4.642;2023-08-20T10:32:20;4.57;;;1.23;;
68250;SDS011;55066;51.560;4.642;2023-08-20T10:34:49;3.67;;;0.87;;
68250;SDS011;55066;51.560;4.642;2023-08-20T10:37:25;5.22;;;1.25;;
68250;SDS011;55066;51.560;4.642;2023-08-20T10:39:55;4.78;;;1.02;;
68250;SDS011;55066;51.560;4.642;2023-08-20T10:42:28;4.68;;;1.00;;
68250;SDS011;55066;51.560;4.642;2023-08-20T10:44:57;4.80;;;1.35;;
68250;SDS011;55066;51.560;4.642;2023-08-20T10:47:42;4.97;;;1.43;;
68250;SDS011;55066;51.560;4.642;2023-08-20T10:50:17;6.30;;;1.23;;
68250;SDS011;55066;51.560;4.642;2023-08-20T10:52:47;6.40;;;0.93;;
68250;SDS011;55066;51.560;4.642;2023-08-20T10:55:14;6.15;;;1.30;;
68250;SDS011;55066;51.560;4.642;2023-08-20T10:57:40;4.37;;;1.10;;
68250;SDS011;55066;51.560;4.642;2023-08-20T11:00:06;4.03;;;1.20;;
68250;SDS011;55066;51.560;4.642;2023-08-20T11:02:37;4.43;;;0.80;;
68250;SDS011;55066;51.560;4.642;2023-08-20T11:05:03;3.67;;;1.20;;
68250;SDS011;55066;51.560;4.642;2023-08-20T11:07:30;3.73;;;1.00;;
68250;SDS011;55066;51.560;4.642;2023-08-20T11:09:57;3.25;;;1.02;;
68250;SDS011;55066;51.560;4.642;2023-08-20T11:12:23;2.97;;;1.08;;
68250;SDS011;55066;51.560;4.642;2023-08-20T11:14:49;4.10;;;0.90;;
68250;SDS011;55066;51.560;4.642;2023-08-20T11:17:14;3.77;;;0.97;;
68250;SDS011;55066;51.560;4.642;2023-08-20T11:19:40;3.45;;;0.82;;
68250;SDS011;55066;51.560;4.642;2023-08-20T11:22:05;4.57;;;1.00;;
68250;SDS011;55066;51.560;4.642;2023-08-20T11:24:31;3.90;;;0.90;;
68250;SDS011;55066;51.560;4.642;2023-08-20T11:26:57;4.32;;;1.27;;
68250;SDS011;55066;51.560;4.642;2023-08-20T11:29:25;2.87;;;0.90;;
68250;SDS011;55066;51.560;4.642;2023-08-20T11:31:51;4.17;;;1.10;;
68250;SDS011;55066;51.560;4.642;2023-08-20T11:34:20;3.55;;;0.90;;
68250;SDS011;55066;51.560;4.642;2023-08-20T11:36:46;3.63;;;0.90;;
68250;SDS011;55066;51.560;4.642;2023-08-20T11:39:11;5.07;;;1.07;;
68250;SDS011;55066;51.560;4.642;2023-08-20T11:41:37;2.72;;;0.88;;
68250;SDS011;55066;51.560;4.642;2023-08-20T11:44:08;3.45;;;0.90;;
68250;SDS011;55066;51.560;4.642;2023-08-20T11:46:33;3.60;;;0.90;;
68250;SDS011;55066;51.560;4.642;2023-08-20T11:49:10;4.22;;;1.00;;
68250;SDS011;55066;51.560;4.642;2023-08-20T11:51:49;3.42;;;0.88;;
68250;SDS011;55066;51.560;4.642;2023-08-20T11:54:15;3.72;;;0.98;;
68250;SDS011;55066;51.560;4.642;2023-08-20T11:56:45;3.72;;;1.00;;
68250;SDS011;55066;51.560;4.642;2023-08-20T11:59:15;4.93;;;1.10;;
68250;SDS011;55066;51.560;4.642;2023-08-20T12:01:42;3.90;;;0.95;;
68250;SDS011;55066;51.560;4.642;2023-08-20T12:04:08;3.67;;;1.03;;
68250;SDS011;55066;51.560;4.642;2023-08-20T12:06:36;3.97;;;1.10;;
68250;SDS011;55066;51.560;4.642;2023-08-20T12:09:24;5.03;;;1.15;;
68250;SDS011;55066;51.560;4.642;2023-08-20T12:11:49;4.05;;;0.98;;
68250;SDS011;55066;51.560;4.642;2023-08-20T12:14:16;3.38;;;1.00;;
68250;SDS011;55066;51.560;4.642;2023-08-20T12:16:42;5.38;;;0.90;;
68250;SDS011;55066;51.560;4.642;2023-08-20T12:19:08;4.40;;;1.10;;
68250;SDS011;55066;51.560;4.642;2023-08-20T12:21:34;4.80;;;1.20;;
68250;SDS011;55066;51.560;4.642;2023-08-20T12:24:00;3.80;;;1.10;;
68250;SDS011;55066;51.560;4.642;2023-08-20T12:26:25;7.03;;;1.10;;
68250;SDS011;55066;51.560;4.642;2023-08-20T12:28:51;3.15;;;0.90;;
68250;SDS011;55066;51.560;4.642;2023-08-20T12:31:16;3.17;;;0.90;;
68250;SDS011;55066;51.560;4.642;2023-08-20T12:33:42;4.53;;;1.10;;
68250;SDS011;55066;51.560;4.642;2023-08-20T12:36:07;3.58;;;0.90;;
68250;SDS011;55066;51.560;4.642;2023-08-20T12:38:33;5.77;;;1.07;;
68250;SDS011;55066;51.560;4.642;2023-08-20T12:41:00;3.67;;;0.82;;
68250;SDS011;55066;51.560;4.642;2023-08-20T12:43:26;3.25;;;0.98;;
68250;SDS011;55066;51.560;4.642;2023-08-20T12:45:51;6.00;;;1.20;;
68250;SDS011;55066;51.560;4.642;2023-08-20T12:48:17;4.37;;;1.00;;
68250;SDS011;55066;51.560;4.642;2023-08-20T12:50:42;3.53;;;0.90;;
68250;SDS011;55066;51.560;4.642;2023-08-20T12:53:08;3.90;;;1.20;;
68250;SDS011;55066;51.560;4.642;2023-08-20T12:55:33;3.70;;;1.20;;
68250;SDS011;55066;51.560;4.642;2023-08-20T12:57:59;4.87;;;1.07;;
68250;SDS011;55066;51.560;4.642;2023-08-20T13:00:25;4.53;;;0.90;;
68250;SDS011;55066;51.560;4.642;2023-08-20T13:02:51;3.00;;;0.93;;
68250;SDS011;55066;51.560;4.642;2023-08-20T13:05:18;2.40;;;0.90;;
68250;SDS011;55066;51.560;4.642;2023-08-20T13:07:44;5.15;;;1.08;;
68250;SDS011;55066;51.560;4.642;2023-08-20T13:10:10;3.47;;;1.10;;
68250;SDS011;55066;51.560;4.642;2023-08-20T13:12:37;5.30;;;1.17;;
68250;SDS011;55066;51.560;4.642;2023-08-20T13:15:19;5.00;;;1.20;;
68250;SDS011;55066;51.560;4.642;2023-08-20T13:17:47;4.87;;;1.17;;
68250;SDS011;55066;51.560;4.642;2023-08-20T13:20:14;3.47;;;1.08;;
68250;SDS011;55066;51.560;4.642;2023-08-20T13:22:40;5.63;;;0.82;;
68250;SDS011;55066;51.560;4.642;2023-08-20T13:25:08;7.45;;;1.10;;
68250;SDS011;55066;51.560;4.642;2023-08-20T13:27:34;5.70;;;1.20;;
68250;SDS011;55066;51.560;4.642;2023-08-20T13:29:59;5.67;;;1.10;;
68250;SDS011;55066;51.560;4.642;2023-08-20T13:32:26;4.43;;;1.10;;
68250;SDS011;55066;51.560;4.642;2023-08-20T13:34:51;3.87;;;1.00;;
68250;SDS011;55066;51.560;4.642;2023-08-20T13:37:17;5.57;;;1.00;;
68250;SDS011;55066;51.560;4.642;2023-08-20T13:39:42;3.37;;;1.00;;
68250;SDS011;55066;51.560;4.642;2023-08-20T13:42:08;3.55;;;0.95;;
68250;SDS011;55066;51.560;4.642;2023-08-20T13:44:34;5.27;;;1.03;;
68250;SDS011;55066;51.560;4.642;2023-08-20T13:46:59;6.70;;;1.00;;
68250;SDS011;55066;51.560;4.642;2023-08-20T13:49:25;4.93;;;1.17;;
68250;SDS011;55066;51.560;4.642;2023-08-20T13:51:50;5.32;;;1.25;;
68250;SDS011;55066;51.560;4.642;2023-08-20T13:54:16;3.37;;;1.10;;
68250;SDS011;55066;51.560;4.642;2023-08-20T13:56:42;4.97;;;1.30;;
68250;SDS011;55066;51.560;4.642;2023-08-20T13:59:10;4.90;;;1.05;;
68250;SDS011;55066;51.560;4.642;2023-08-20T14:01:36;5.47;;;1.10;;
68250;SDS011;55066;51.560;4.642;2023-08-20T14:04:01;5.53;;;1.00;;
68250;SDS011;55066;51.560;4.642;2023-08-20T14:06:28;4.05;;;1.00;;
68250;SDS011;55066;51.560;4.642;2023-08-20T14:08:54;4.30;;;1.10;;
68250;SDS011;55066;51.560;4.642;2023-08-20T14:11:19;5.25;;;1.17;;
68250;SDS011;55066;51.560;4.642;2023-08-20T14:13:45;5.17;;;1.00;;
68250;SDS011;55066;51.560;4.642;2023-08-20T14:16:10;5.07;;;1.23;;
68250;SDS011;55066;51.560;4.642;2023-08-20T14:18:36;5.28;;;1.35;;
68250;SDS011;55066;51.560;4.642;2023-08-20T14:21:01;4.80;;;1.07;;
68250;SDS011;55066;51.560;4.642;2023-08-20T14:23:28;4.57;;;1.17;;
68250;SDS011;55066;51.560;4.642;2023-08-20T14:25:54;5.43;;;1.27;;
68250;SDS011;55066;51.560;4.642;2023-08-20T14:28:20;3.92;;;0.95;;
68250;SDS011;55066;51.560;4.642;2023-08-20T14:30:46;7.28;;;1.27;;
68250;SDS011;55066;51.560;4.642;2023-08-20T14:33:12;5.33;;;1.30;;
68250;SDS011;55066;51.560;4.642;2023-08-20T14:35:37;3.93;;;1.30;;
68250;SDS011;55066;51.560;4.642;2023-08-20T14:38:03;3.40;;;1.00;;
68250;SDS011;55066;51.560;4.642;2023-08-20T14:40:28;8.27;;;3.00;;
68250;SDS011;55066;51.560;4.642;2023-08-20T14:42:55;6.55;;;1.60;;
68250;SDS011;55066;51.560;4.642;2023-08-20T14:45:21;7.23;;;1.50;;
68250;SDS011;55066;51.560;4.642;2023-08-20T14:47:46;5.80;;;1.33;;